sensor_id;sensor_type;location;lat;lon;timestamp;pressure;altitude;pressure_sealevel;temperature;humidity
21863;BME280;11096;51.338;12.524;2023-08-12T00:01:20;100482.19;;;19.18;69.95
21863;BME280;11096;51.338;12.524;2023-08-12T00:03:47;100485.59;;;18.92;71.44
21863;BME280;11096;51.338;12.524;2023-08-12T00:06:12;100483.03;;;18.82;72.05
21863;BME280;11096;51.338;12.524;2023-08-12T00:08:38;100482.22;;;18.82;72.31
21863;BME280;11096;51.338;12.524;2023-08-12T00:11:04;100490.13;;;18.82;72.39
21863;BME280;11096;51.338;12.524;2023-08-12T00:13:29;100492.75;;;18.82;72.07
21863;BME280;11096;51.338;12.524;2023-08-12T00:15:54;100487.66;;;18.80;71.73
21863;BME280;11096;51.338;12.524;2023-08-12T00:18:22;100495.38;;;18.82;72.29
21863;BME280;11096;51.338;12.524;2023-08-12T00:20:47;100488.00;;;19.03;72.19
21863;BME280;11096;51.338;12.524;2023-08-12T00:23:13;100489.44;;;18.80;72.00
21863;BME280;11096;51.338;12.524;2023-08-12T00:25:38;100494.19;;;18.76;72.04
21863;BME280;11096;51.338;12.524;2023-08-12T00:28:04;100508.19;;;18.77;72.30
21863;BME280;11096;51.338;12.524;2023-08-12T00:30:30;100500.63;;;18.64;72.63
21863;BME280;11096;51.338;12.524;2023-08-12T00:32:55;100499.91;;;19.07;71.71
21863;BME280;11096;51.338;12.524;2023-08-12T00:35:21;100490.47;;;18.69;72.83
21863;BME280;11096;51.338;12.524;2023-08-12T00:37:46;100485.00;;;18.98;72.95
21863;BME280;11096;51.338;12.524;2023-08-12T00:40:12;100479.31;;;18.75;73.10
21863;BME280;11096;51.338;12.524;2023-08-12T00:42:38;100480.31;;;18.74;73.75
21863;BME280;11096;51.338;12.524;2023-08-12T00:45:09;100480.94;;;18.86;73.27
21863;BME280;11096;51.338;12.524;2023-08-12T00:47:35;100473.28;;;18.93;72.82
21863;BME280;11096;51.338;12.524;2023-08-12T00:50:02;100470.31;;;18.78;73.00
21863;BME280;11096;51.338;12.524;2023-08-12T00:52:27;100474.69;;;18.69;73.30
21863;BME280;11096;51.338;12.524;2023-08-12T00:54:53;100470.69;;;18.65;73.16
21863;BME280;11096;51.338;12.524;2023-08-12T00:57:19;100461.81;;;18.66;73.57
21863;BME280;11096;51.338;12.524;2023-08-12T00:59:44;100459.31;;;18.64;73.10
21863;BME280;11096;51.338;12.524;2023-08-12T01:02:11;100459.63;;;18.61;73.27
21863;BME280;11096;51.338;12.524;2023-08-12T01:04:37;100455.13;;;18.54;73.35
21863;BME280;11096;51.338;12.524;2023-08-12T01:07:03;100461.97;;;18.47;73.38
21863;BME280;11096;51.338;12.524;2023-08-12T01:09:29;100456.09;;;18.53;73.56
21863;BME280;11096;51.338;12.524;2023-08-12T01:12:13;100461.97;;;18.64;73.09
21863;BME280;11096;51.338;12.524;2023-08-12T01:17:22;100447.34;;;18.70;73.29
21863;BME280;11096;51.338;12.524;2023-08-12T01:19:49;100445.72;;;18.69;73.54
21863;BME280;11096;51.338;12.524;2023-08-12T01:22:16;100452.34;;;18.73;73.60
21863;BME280;11096;51.338;12.524;2023-08-12T01:24:43;100453.75;;;18.67;73.50
21863;BME280;11096;51.338;12.524;2023-08-12T01:27:10;100442.72;;;18.64;73.63
21863;BME280;11096;51.338;12.524;2023-08-12T01:29:39;100442.72;;;18.64;73.98
21863;BME280;11096;51.338;12.524;2023-08-12T01:34:47;100449.41;;;18.58;73.85
21863;BME280;11096;51.338;12.524;2023-08-12T01:37:23;100442.47;;;18.57;74.13
21863;BME280;11096;51.338;12.524;2023-08-12T01:39:49;100438.94;;;18.66;74.14
21863;BME280;11096;51.338;12.524;2023-08-12T01:42:18;100435.50;;;18.66;74.35
21863;BME280;11096;51.338;12.524;2023-08-12T01:44:45;100440.09;;;18.64;74.09
21863;BME280;11096;51.338;12.524;2023-08-12T01:47:10;100436.63;;;18.63;74.12
21863;BME280;11096;51.338;12.524;2023-08-12T01:49:36;100435.94;;;18.61;74.26
21863;BME280;11096;51.338;12.524;2023-08-12T01:52:03;100435.31;;;18.67;73.84
21863;BME280;11096;51.338;12.524;2023-08-12T01:54:29;100434.38;;;18.69;73.87
21863;BME280;11096;51.338;12.524;2023-08-12T01:57:03;100437.38;;;18.74;73.81
21863;BME280;11096;51.338;12.524;2023-08-12T01:59:34;100433.47;;;18.78;73.83
21863;BME280;11096;51.338;12.524;2023-08-12T02:01:59;100426.09;;;18.81;73.10
21863;BME280;11096;51.338;12.524;2023-08-12T02:04:26;100421.84;;;18.80;73.44
21863;BME280;11096;51.338;12.524;2023-08-12T02:06:52;100426.56;;;18.77;73.55
21863;BME280;11096;51.338;12.524;2023-08-12T02:09:17;100422.53;;;18.73;74.03
21863;BME280;11096;51.338;12.524;2023-08-12T02:11:42;100419.34;;;18.79;74.23
21863;BME280;11096;51.338;12.524;2023-08-12T02:14:08;100418.25;;;18.72;74.69
21863;BME280;11096;51.338;12.524;2023-08-12T02:16:33;100413.69;;;18.74;74.99
21863;BME280;11096;51.338;12.524;2023-08-12T02:18:59;100409.84;;;18.86;74.53
21863;BME280;11096;51.338;12.524;2023-08-12T02:21:24;100416.72;;;18.79;74.50
21863;BME280;11096;51.338;12.524;2023-08-12T02:23:49;100402.53;;;19.24;73.54
21863;BME280;11096;51.338;12.524;2023-08-12T02:26:15;100399.13;;;19.31;72.58
21863;BME280;11096;51.338;12.524;2023-08-12T02:28:41;100399.16;;;18.87;73.94
21863;BME280;11096;51.338;12.524;2023-08-12T02:31:06;100403.38;;;18.98;74.76
21863;BME280;11096;51.338;12.524;2023-08-12T02:33:31;100393.31;;;18.76;74.69
21863;BME280;11096;51.338;12.524;2023-08-12T02:35:57;100387.25;;;18.65;75.38
21863;BME280;11096;51.338;12.524;2023-08-12T02:38:22;100380.72;;;18.70;75.49
21863;BME280;11096;51.338;12.524;2023-08-12T02:40:48;100379.00;;;18.60;75.85
21863;BME280;11096;51.338;12.524;2023-08-12T02:43:15;100375.19;;;18.55;75.93
21863;BME280;11096;51.338;12.524;2023-08-12T02:45:40;100379.56;;;18.46;76.30
21863;BME280;11096;51.338;12.524;2023-08-12T02:48:06;100380.13;;;18.58;76.20
21863;BME280;11096;51.338;12.524;2023-08-12T02:50:31;100373.09;;;18.58;75.65
21863;BME280;11096;51.338;12.524;2023-08-12T02:52:56;100373.72;;;18.60;75.70
21863;BME280;11096;51.338;12.524;2023-08-12T02:55:22;100376.31;;;18.52;75.48
21863;BME280;11096;51.338;12.524;2023-08-12T02:57:48;100372.69;;;18.53;75.97
21863;BME280;11096;51.338;12.524;2023-08-12T03:00:13;100369.47;;;18.59;75.71
21863;BME280;11096;51.338;12.524;2023-08-12T03:02:42;100371.97;;;18.61;75.64
21863;BME280;11096;51.338;12.524;2023-08-12T03:05:08;100378.56;;;18.65;75.46
21863;BME280;11096;51.338;12.524;2023-08-12T03:07:33;100371.47;;;18.65;75.38
21863;BME280;11096;51.338;12.524;2023-08-12T03:09:59;100364.94;;;18.70;75.67
21863;BME280;11096;51.338;12.524;2023-08-12T03:12:24;100359.66;;;18.70;75.27
21863;BME280;11096;51.338;12.524;2023-08-12T03:14:50;100369.31;;;18.61;75.39
21863;BME280;11096;51.338;12.524;2023-08-12T03:17:15;100363.56;;;18.65;75.83
21863;BME280;11096;51.338;12.524;2023-08-12T03:19:41;100359.66;;;18.70;75.78
21863;BME280;11096;51.338;12.524;2023-08-12T03:22:07;100350.41;;;18.65;75.27
21863;BME280;11096;51.338;12.524;2023-08-12T03:24:32;100363.28;;;18.69;75.76
21863;BME280;11096;51.338;12.524;2023-08-12T03:26:58;100357.72;;;18.72;75.38
21863;BME280;11096;51.338;12.524;2023-08-12T03:29:24;100362.97;;;18.90;74.32
21863;BME280;11096;51.338;12.524;2023-08-12T03:31:49;100352.38;;;18.81;74.72
21863;BME280;11096;51.338;12.524;2023-08-12T03:34:15;100356.78;;;18.99;74.89
21863;BME280;11096;51.338;12.524;2023-08-12T03:36:40;100355.06;;;18.90;74.13
21863;BME280;11096;51.338;12.524;2023-08-12T03:39:06;100350.78;;;18.88;74.60
21863;BME280;11096;51.338;12.524;2023-08-12T03:41:32;100349.78;;;19.07;74.15
21863;BME280;11096;51.338;12.524;2023-08-12T03:43:57;100350.88;;;19.31;73.28
21863;BME280;11096;51.338;12.524;2023-08-12T03:46:22;100348.22;;;19.31;72.44
21863;BME280;11096;51.338;12.524;2023-08-12T03:48:48;100344.88;;;19.21;73.18
21863;BME280;11096;51.338;12.524;2023-08-12T03:51:13;100345.00;;;19.11;72.47
21863;BME280;11096;51.338;12.524;2023-08-12T03:53:39;100343.28;;;19.02;73.38
21863;BME280;11096;51.338;12.524;2023-08-12T03:56:04;100340.22;;;19.15;73.53
21863;BME280;11096;51.338;12.524;2023-08-12T03:58:30;100335.25;;;19.03;73.58
21863;BME280;11096;51.338;12.524;2023-08-12T04:00:55;100339.59;;;19.13;73.06
21863;BME280;11096;51.338;12.524;2023-08-12T04:03:21;100336.78;;;19.14;72.72
21863;BME280;11096;51.338;12.524;2023-08-12T04:05:47;100341.69;;;19.09;73.29
21863;BME280;11096;51.338;12.524;2023-08-12T04:08:13;100340.22;;;19.49;72.27
21863;BME280;11096;51.338;12.524;2023-08-12T04:10:39;100351.09;;;19.12;73.00
21863;BME280;11096;51.338;12.524;2023-08-12T04:13:04;100349.91;;;19.06;73.47
21863;BME280;11096;51.338;12.524;2023-08-12T04:15:31;100346.97;;;19.09;73.64
21863;BME280;11096;51.338;12.524;2023-08-12T04:17:56;100347.78;;;19.09;74.02
21863;BME280;11096;51.338;12.524;2023-08-12T04:20:23;100342.38;;;19.45;73.16
21863;BME280;11096;51.338;12.524;2023-08-12T04:22:49;100333.19;;;19.58;72.70
21863;BME280;11096;51.338;12.524;2023-08-12T04:25:14;100337.06;;;19.37;72.42
21863;BME280;11096;51.338;12.524;2023-08-12T04:27:40;100343.44;;;19.26;73.26
21863;BME280;11096;51.338;12.524;2023-08-12T04:30:06;100334.63;;;19.86;71.76
21863;BME280;11096;51.338;12.524;2023-08-12T04:32:32;100335.91;;;19.74;72.00
21863;BME280;11096;51.338;12.524;2023-08-12T04:34:57;100347.25;;;19.32;72.74
21863;BME280;11096;51.338;12.524;2023-08-12T04:37:22;100332.09;;;19.34;73.26
21863;BME280;11096;51.338;12.524;2023-08-12T04:39:49;100338.34;;;19.25;74.14
21863;BME280;11096;51.338;12.524;2023-08-12T04:42:15;100335.72;;;19.33;74.17
21863;BME280;11096;51.338;12.524;2023-08-12T04:44:41;100337.38;;;19.34;74.66
21863;BME280;11096;51.338;12.524;2023-08-12T04:47:06;100338.25;;;19.43;74.43
21863;BME280;11096;51.338;12.524;2023-08-12T04:49:32;100338.09;;;19.44;74.77
21863;BME280;11096;51.338;12.524;2023-08-12T04:51:57;100325.09;;;19.51;74.94
21863;BME280;11096;51.338;12.524;2023-08-12T04:54:23;100332.53;;;19.64;74.50
21863;BME280;11096;51.338;12.524;2023-08-12T04:56:49;100325.56;;;19.97;74.22
21863;BME280;11096;51.338;12.524;2023-08-12T04:59:14;100323.38;;;19.76;74.23
21863;BME280;11096;51.338;12.524;2023-08-12T05:01:40;100320.19;;;20.23;72.45
21863;BME280;11096;51.338;12.524;2023-08-12T05:04:05;100324.44;;;20.32;72.11
21863;BME280;11096;51.338;12.524;2023-08-12T05:06:31;100324.28;;;20.34;71.88
21863;BME280;11096;51.338;12.524;2023-08-12T05:08:56;100327.94;;;20.41;71.49
21863;BME280;11096;51.338;12.524;2023-08-12T05:11:22;100333.03;;;20.51;71.15
21863;BME280;11096;51.338;12.524;2023-08-12T05:13:47;100334.72;;;20.60;71.03
21863;BME280;11096;51.338;12.524;2023-08-12T05:16:12;100336.34;;;20.69;70.83
21863;BME280;11096;51.338;12.524;2023-08-12T05:18:38;100320.19;;;20.72;70.31
21863;BME280;11096;51.338;12.524;2023-08-12T05:21:03;100331.22;;;20.76;70.35
21863;BME280;11096;51.338;12.524;2023-08-12T05:23:29;100326.44;;;20.79;70.15
21863;BME280;11096;51.338;12.524;2023-08-12T05:25:54;100321.97;;;20.88;70.37
21863;BME280;11096;51.338;12.524;2023-08-12T05:28:19;100326.13;;;20.83;70.38
21863;BME280;11096;51.338;12.524;2023-08-12T05:30:45;100316.53;;;20.73;70.77
21863;BME280;11096;51.338;12.524;2023-08-12T05:33:10;100322.63;;;20.90;70.69
21863;BME280;11096;51.338;12.524;2023-08-12T05:35:36;100324.44;;;20.90;71.00
21863;BME280;11096;51.338;12.524;2023-08-12T05:38:01;100326.91;;;20.99;70.64
21863;BME280;11096;51.338;12.524;2023-08-12T05:40:27;100330.72;;;20.80;70.61
21863;BME280;11096;51.338;12.524;2023-08-12T05:42:52;100334.72;;;20.68;71.19
21863;BME280;11096;51.338;12.524;2023-08-12T05:45:18;100334.38;;;20.71;71.23
21863;BME280;11096;51.338;12.524;2023-08-12T05:47:43;100337.69;;;20.65;71.21
21863;BME280;11096;51.338;12.524;2023-08-12T05:50:09;100338.16;;;20.69;71.07
21863;BME280;11096;51.338;12.524;2023-08-12T05:52:34;100331.72;;;20.79;71.13
21863;BME280;11096;51.338;12.524;2023-08-12T05:55:00;100334.34;;;20.88;71.60
21863;BME280;11096;51.338;12.524;2023-08-12T05:57:25;100330.34;;;21.08;71.38
21863;BME280;11096;51.338;12.524;2023-08-12T05:59:50;100334.53;;;21.34;71.01
21863;BME280;11096;51.338;12.524;2023-08-12T06:02:16;100332.78;;;21.65;69.97
21863;BME280;11096;51.338;12.524;2023-08-12T06:04:42;100330.94;;;21.97;67.71
21863;BME280;11096;51.338;12.524;2023-08-12T06:07:07;100331.09;;;22.50;65.96
21863;BME280;11096;51.338;12.524;2023-08-12T06:09:33;100326.16;;;23.00;65.54
21863;BME280;11096;51.338;12.524;2023-08-12T06:11:58;100316.47;;;23.36;62.53
21863;BME280;11096;51.338;12.524;2023-08-12T06:14:23;100316.94;;;23.62;62.13
21863;BME280;11096;51.338;12.524;2023-08-12T06:16:49;100322.47;;;23.96;61.40
21863;BME280;11096;51.338;12.524;2023-08-12T06:19:14;100319.94;;;24.10;60.30
21863;BME280;11096;51.338;12.524;2023-08-12T06:21:40;100312.59;;;24.12;59.71
21863;BME280;11096;51.338;12.524;2023-08-12T06:24:05;100318.94;;;24.11;59.29
21863;BME280;11096;51.338;12.524;2023-08-12T06:26:31;100312.81;;;24.38;59.32
21863;BME280;11096;51.338;12.524;2023-08-12T06:28:56;100315.72;;;24.65;58.29
21863;BME280;11096;51.338;12.524;2023-08-12T06:31:21;100300.66;;;24.72;58.36
21863;BME280;11096;51.338;12.524;2023-08-12T06:33:47;100306.25;;;24.56;58.47
21863;BME280;11096;51.338;12.524;2023-08-12T06:36:12;100307.31;;;24.90;58.88
21863;BME280;11096;51.338;12.524;2023-08-12T06:38:38;100304.28;;;24.99;58.09
21863;BME280;11096;51.338;12.524;2023-08-12T06:41:03;100308.97;;;24.97;57.21
21863;BME280;11096;51.338;12.524;2023-08-12T06:43:28;100307.56;;;24.67;56.91
21863;BME280;11096;51.338;12.524;2023-08-12T06:45:54;100303.13;;;25.09;57.35
21863;BME280;11096;51.338;12.524;2023-08-12T06:48:19;100300.78;;;24.92;57.19
21863;BME280;11096;51.338;12.524;2023-08-12T06:50:44;100308.56;;;24.94;57.46
21863;BME280;11096;51.338;12.524;2023-08-12T06:53:10;100305.91;;;24.66;57.84
21863;BME280;11096;51.338;12.524;2023-08-12T06:55:36;100302.91;;;24.75;57.35
21863;BME280;11096;51.338;12.524;2023-08-12T06:58:01;100301.81;;;24.98;58.14
21863;BME280;11096;51.338;12.524;2023-08-12T07:00:27;100295.91;;;25.02;56.70
21863;BME280;11096;51.338;12.524;2023-08-12T07:02:53;100299.28;;;24.83;56.27
21863;BME280;11096;51.338;12.524;2023-08-12T07:05:18;100294.13;;;24.75;56.42
21863;BME280;11096;51.338;12.524;2023-08-12T07:07:44;100302.72;;;24.77;56.67
21863;BME280;11096;51.338;12.524;2023-08-12T07:10:10;100298.66;;;24.53;56.73
21863;BME280;11096;51.338;12.524;2023-08-12T07:12:35;100291.41;;;24.68;56.18
21863;BME280;11096;51.338;12.524;2023-08-12T07:15:01;100293.41;;;24.59;56.55
21863;BME280;11096;51.338;12.524;2023-08-12T07:17:26;100295.97;;;24.74;56.76
21863;BME280;11096;51.338;12.524;2023-08-12T07:19:51;100296.16;;;24.73;56.63
21863;BME280;11096;51.338;12.524;2023-08-12T07:22:17;100295.59;;;24.49;56.96
21863;BME280;11096;51.338;12.524;2023-08-12T07:24:45;100290.88;;;24.51;57.28
21863;BME280;11096;51.338;12.524;2023-08-12T07:27:10;100293.75;;;24.50;57.49
21863;BME280;11096;51.338;12.524;2023-08-12T07:29:36;100294.56;;;24.50;57.23
21863;BME280;11096;51.338;12.524;2023-08-12T07:32:01;100290.13;;;24.57;57.75
21863;BME280;11096;51.338;12.524;2023-08-12T07:34:26;100291.91;;;24.50;57.43
21863;BME280;11096;51.338;12.524;2023-08-12T07:36:52;100292.59;;;24.59;57.53
21863;BME280;11096;51.338;12.524;2023-08-12T07:39:17;100295.25;;;24.59;57.91
21863;BME280;11096;51.338;12.524;2023-08-12T07:41:43;100289.69;;;24.54;58.33
21863;BME280;11096;51.338;12.524;2023-08-12T07:44:08;100287.00;;;24.47;58.15
21863;BME280;11096;51.338;12.524;2023-08-12T07:46:33;100295.28;;;24.66;57.82
21863;BME280;11096;51.338;12.524;2023-08-12T07:48:59;100286.22;;;24.53;58.74
21863;BME280;11096;51.338;12.524;2023-08-12T07:51:24;100288.91;;;24.60;59.17
21863;BME280;11096;51.338;12.524;2023-08-12T07:53:50;100299.25;;;24.48;60.14
21863;BME280;11096;51.338;12.524;2023-08-12T07:56:15;100290.75;;;24.59;60.40
21863;BME280;11096;51.338;12.524;2023-08-12T07:58:41;100294.75;;;24.77;60.76
21863;BME280;11096;51.338;12.524;2023-08-12T08:01:06;100292.47;;;25.57;59.81
21863;BME280;11096;51.338;12.524;2023-08-12T08:03:33;100298.19;;;25.47;59.73
21863;BME280;11096;51.338;12.524;2023-08-12T08:05:59;100295.91;;;26.05;59.37
21863;BME280;11096;51.338;12.524;2023-08-12T08:08:24;100291.00;;;26.22;58.08
21863;BME280;11096;51.338;12.524;2023-08-12T08:10:50;100287.94;;;25.44;59.91
21863;BME280;11096;51.338;12.524;2023-08-12T08:13:15;100290.97;;;25.96;58.57
21863;BME280;11096;51.338;12.524;2023-08-12T08:15:40;100291.22;;;25.46;59.54
21863;BME280;11096;51.338;12.524;2023-08-12T08:18:06;100294.56;;;25.68;58.95
21863;BME280;11096;51.338;12.524;2023-08-12T08:20:31;100297.53;;;26.13;57.76
21863;BME280;11096;51.338;12.524;2023-08-12T08:22:57;100291.59;;;26.18;57.47
21863;BME280;11096;51.338;12.524;2023-08-12T08:25:22;100303.28;;;25.35;58.97
21863;BME280;11096;51.338;12.524;2023-08-12T08:27:48;100300.00;;;25.33;59.13
21863;BME280;11096;51.338;12.524;2023-08-12T08:30:13;100297.81;;;25.50;59.22
21863;BME280;11096;51.338;12.524;2023-08-12T08:32:39;100300.81;;;26.15;58.52
21863;BME280;11096;51.338;12.524;2023-08-12T08:35:04;100308.81;;;25.40;58.36
21863;BME280;11096;51.338;12.524;2023-08-12T08:37:30;100298.38;;;25.39;59.14
21863;BME280;11096;51.338;12.524;2023-08-12T08:39:55;100296.94;;;25.36;60.96
21863;BME280;11096;51.338;12.524;2023-08-12T08:42:24;100293.03;;;24.97;64.75
21863;BME280;11096;51.338;12.524;2023-08-12T08:44:52;100295.84;;;24.89;63.86
21863;BME280;11096;51.338;12.524;2023-08-12T08:47:26;100292.38;;;24.89;64.13
21863;BME280;11096;51.338;12.524;2023-08-12T08:49:57;100292.16;;;24.83;63.65
21863;BME280;11096;51.338;12.524;2023-08-12T08:52:24;100297.56;;;24.69;64.31
21863;BME280;11096;51.338;12.524;2023-08-12T08:54:52;100295.53;;;24.71;65.20
21863;BME280;11096;51.338;12.524;2023-08-12T08:57:18;100304.34;;;24.71;67.23
21863;BME280;11096;51.338;12.524;2023-08-12T08:59:45;100314.19;;;24.49;69.52
21863;BME280;11096;51.338;12.524;2023-08-12T09:02:16;100315.25;;;24.12;68.98
21863;BME280;11096;51.338;12.524;2023-08-12T09:04:45;100318.50;;;24.07;67.92
21863;BME280;11096;51.338;12.524;2023-08-12T09:07:12;100325.13;;;23.96;70.73
21863;BME280;11096;51.338;12.524;2023-08-12T09:09:41;100322.00;;;24.57;71.00
21863;BME280;11096;51.338;12.524;2023-08-12T09:12:13;100326.56;;;24.42;75.52
21863;BME280;11096;51.338;12.524;2023-08-12T09:14:39;100330.50;;;24.25;95.80
21863;BME280;11096;51.338;12.524;2023-08-12T09:17:05;100328.66;;;24.04;100.00
21863;BME280;11096;51.338;12.524;2023-08-12T09:19:31;100334.25;;;24.58;100.00
21863;BME280;11096;51.338;12.524;2023-08-12T09:21:56;100331.94;;;25.05;100.00
21863;BME280;11096;51.338;12.524;2023-08-12T09:24:25;100332.34;;;25.43;100.00
21863;BME280;11096;51.338;12.524;2023-08-12T09:26:52;100315.25;;;25.18;100.00
21863;BME280;11096;51.338;12.524;2023-08-12T09:29:17;100321.63;;;25.78;100.00
21863;BME280;11096;51.338;12.524;2023-08-12T09:31:43;100322.53;;;26.05;100.00
21863;BME280;11096;51.338;12.524;2023-08-12T09:34:08;100324.38;;;26.11;100.00
21863;BME280;11096;51.338;12.524;2023-08-12T09:36:34;100298.19;;;25.47;100.00
21863;BME280;11096;51.338;12.524;2023-08-12T09:38:59;100304.84;;;25.78;100.00
21863;BME280;11096;51.338;12.524;2023-08-12T09:41:28;100309.66;;;25.54;100.00
21863;BME280;11096;51.338;12.524;2023-08-12T09:43:55;100301.00;;;25.32;100.00
21863;BME280;11096;51.338;12.524;2023-08-12T09:46:22;100297.13;;;24.43;100.00
21863;BME280;11096;51.338;12.524;2023-08-12T09:48:51;100307.34;;;24.61;100.00
21863;BME280;11096;51.338;12.524;2023-08-12T09:51:20;100300.59;;;24.66;100.00
21863;BME280;11096;51.338;12.524;2023-08-12T09:53:49;100306.69;;;24.59;100.00
21863;BME280;11096;51.338;12.524;2023-08-12T09:56:18;100300.06;;;24.77;100.00
21863;BME280;11096;51.338;12.524;2023-08-12T09:58:48;100299.59;;;25.01;100.00
21863;BME280;11096;51.338;12.524;2023-08-12T10:01:18;100301.94;;;24.83;100.00
21863;BME280;11096;51.338;12.524;2023-08-12T10:03:45;100292.50;;;25.15;100.00
21863;BME280;11096;51.338;12.524;2023-08-12T10:06:13;100294.19;;;24.88;100.00
21863;BME280;11096;51.338;12.524;2023-08-12T10:08:39;100284.81;;;25.27;100.00
21863;BME280;11096;51.338;12.524;2023-08-12T10:11:05;100286.25;;;25.23;100.00
21863;BME280;11096;51.338;12.524;2023-08-12T10:13:31;100281.16;;;25.89;85.04
21863;BME280;11096;51.338;12.524;2023-08-12T10:15:56;100262.09;;;27.31;75.06
21863;BME280;11096;51.338;12.524;2023-08-12T10:18:23;100255.03;;;27.50;62.65
21863;BME280;11096;51.338;12.524;2023-08-12T10:20:50;100263.59;;;27.20;63.27
21863;BME280;11096;51.338;12.524;2023-08-12T10:23:17;100262.97;;;27.05;63.82
21863;BME280;11096;51.338;12.524;2023-08-12T10:25:44;100261.34;;;27.04;63.09
21863;BME280;11096;51.338;12.524;2023-08-12T10:28:13;100263.03;;;26.98;63.01
21863;BME280;11096;51.338;12.524;2023-08-12T10:30:40;100263.72;;;26.73;63.42
21863;BME280;11096;51.338;12.524;2023-08-12T10:33:07;100273.56;;;26.66;64.09
21863;BME280;11096;51.338;12.524;2023-08-12T10:35:44;100260.03;;;26.61;61.14
21863;BME280;11096;51.338;12.524;2023-08-12T10:38:14;100264.53;;;26.41;59.69
21863;BME280;11096;51.338;12.524;2023-08-12T10:40:41;100272.56;;;26.34;61.12
21863;BME280;11096;51.338;12.524;2023-08-12T10:43:07;100275.41;;;26.39;60.47
21863;BME280;11096;51.338;12.524;2023-08-12T10:45:52;100280.53;;;26.41;61.76
21863;BME280;11096;51.338;12.524;2023-08-12T10:48:21;100280.53;;;26.34;59.42
21863;BME280;11096;51.338;12.524;2023-08-12T10:50:59;100284.03;;;26.34;62.57
21863;BME280;11096;51.338;12.524;2023-08-12T10:53:29;100281.13;;;26.43;61.09
21863;BME280;11096;51.338;12.524;2023-08-12T10:55:59;100279.09;;;26.38;61.15
21863;BME280;11096;51.338;12.524;2023-08-12T10:58:45;100285.25;;;26.32;61.79
21863;BME280;11096;51.338;12.524;2023-08-12T11:01:17;100275.81;;;26.29;63.42
21863;BME280;11096;51.338;12.524;2023-08-12T11:03:43;100280.94;;;26.04;64.35
21863;BME280;11096;51.338;12.524;2023-08-12T11:06:12;100282.69;;;25.64;66.66
21863;BME280;11096;51.338;12.524;2023-08-12T11:08:51;100266.06;;;25.48;69.50
21863;BME280;11096;51.338;12.524;2023-08-12T11:11:22;100265.03;;;25.49;70.48
21863;BME280;11096;51.338;12.524;2023-08-12T11:13:57;100249.38;;;25.20;71.87
21863;BME280;11096;51.338;12.524;2023-08-12T11:16:42;100261.94;;;24.98;74.03
21863;BME280;11096;51.338;12.524;2023-08-12T11:19:08;100256.78;;;24.90;76.22
21863;BME280;11096;51.338;12.524;2023-08-12T11:21:36;100281.91;;;24.52;93.75
21863;BME280;11096;51.338;12.524;2023-08-12T11:24:02;100280.31;;;23.72;95.30
21863;BME280;11096;51.338;12.524;2023-08-12T11:26:28;100272.72;;;24.05;100.00
21863;BME280;11096;51.338;12.524;2023-08-12T11:28:53;100266.13;;;23.58;100.00
21863;BME280;11096;51.338;12.524;2023-08-12T11:31:19;100264.69;;;23.98;100.00
21863;BME280;11096;51.338;12.524;2023-08-12T11:33:44;100262.69;;;24.29;100.00
21863;BME280;11096;51.338;12.524;2023-08-12T11:36:10;100235.19;;;23.29;100.00
21863;BME280;11096;51.338;12.524;2023-08-12T11:38:37;100221.59;;;22.87;100.00
21863;BME280;11096;51.338;12.524;2023-08-12T11:41:02;100215.50;;;23.02;100.00
21863;BME280;11096;51.338;12.524;2023-08-12T11:43:28;100204.56;;;23.26;100.00
21863;BME280;11096;51.338;12.524;2023-08-12T11:45:55;100207.44;;;23.46;100.00
21863;BME280;11096;51.338;12.524;2023-08-12T11:48:21;100204.84;;;23.96;100.00
21863;BME280;11096;51.338;12.524;2023-08-12T11:50:46;100207.03;;;24.42;100.00
21863;BME280;11096;51.338;12.524;2023-08-12T11:53:12;100199.06;;;25.18;82.44
21863;BME280;11096;51.338;12.524;2023-08-12T11:55:37;100178.50;;;26.13;71.29
21863;BME280;11096;51.338;12.524;2023-08-12T11:58:05;100168.88;;;27.36;63.16
21863;BME280;11096;51.338;12.524;2023-08-12T12:00:31;100162.09;;;28.15;60.85
21863;BME280;11096;51.338;12.524;2023-08-12T12:02:58;100148.63;;;28.47;56.74
21863;BME280;11096;51.338;12.524;2023-08-12T12:05:28;100162.63;;;28.42;54.87
21863;BME280;11096;51.338;12.524;2023-08-12T12:07:55;100150.78;;;27.95;54.64
21863;BME280;11096;51.338;12.524;2023-08-12T12:10:26;100153.31;;;28.08;55.23
21863;BME280;11096;51.338;12.524;2023-08-12T12:12:54;100142.25;;;28.48;53.58
21863;BME280;11096;51.338;12.524;2023-08-12T12:15:19;100142.81;;;29.17;51.46
21863;BME280;11096;51.338;12.524;2023-08-12T12:17:46;100133.19;;;29.82;49.34
21863;BME280;11096;51.338;12.524;2023-08-12T12:20:12;100129.22;;;29.30;50.00
21863;BME280;11096;51.338;12.524;2023-08-12T12:22:42;100124.31;;;29.69;48.72
21863;BME280;11096;51.338;12.524;2023-08-12T12:25:10;100114.50;;;30.74;46.79
21863;BME280;11096;51.338;12.524;2023-08-12T12:27:37;100109.09;;;32.65;44.49
21863;BME280;11096;51.338;12.524;2023-08-12T12:30:04;100109.25;;;33.35;41.40
21863;BME280;11096;51.338;12.524;2023-08-12T12:32:31;100097.19;;;33.75;39.06
21863;BME280;11096;51.338;12.524;2023-08-12T12:34:56;100091.53;;;33.82;39.47
21863;BME280;11096;51.338;12.524;2023-08-12T12:37:22;100088.66;;;33.19;38.88
21863;BME280;11096;51.338;12.524;2023-08-12T12:39:47;100088.59;;;33.83;38.81